首页
METAR-TAF:

METAR-TAF

机场 :

Fort St. John, 不列颠哥伦比亚, 加拿大

纬度: 56-14N, 经度: 120-44W, 海拔: 695米

当前天气观测

该预报发布于1小时和18分钟前的04:00 UTC
风速9节,风向西南
温度 14°C
湿度 55%
气压 1001 hPa
能見度: 96.5公里
多云层高于7600英尺
多云层高于11000英尺

METAR: CYXJ 250400Z 23009KT 60SM BKN076 BKN110 14/05 A2956 RMK AC5AC1 VIRGA SLP022 DENSITY ALT 3200FT

时间: 22:18 (05:18 UTC)

预报

该预报发布于4小时和38分钟前的00:40 UTC
预报有效从25日的 01点(UTC)到 25日的 13点(UTC)
风速6节,风向西北
能見度: 10公里
散云层高于7000英尺
多云层高于12000英尺
短暂存在
从 25日的 01点(UTC)到 25日的 05点(UTC)
能見度: 10公里
多云层高于6000英尺
多云层高于12000英尺
小阵雨
从 25日的 0500点(UTC)
风速6节,风向东南
能見度: 10公里
多云层高于6000英尺
短暂存在
从 25日的 05点(UTC)到 25日的 13点(UTC)
能見度: 10公里
多云层高于4000英尺
小阵雨

TAF: CYXJ 250040Z 2501/2513 31006KT P6SM SCT070 BKN120 TEMPO 2501/2505 P6SM -SHRA BKN060 BKN120 FM250500 14006KT P6SM BKN060 TEMPO 2505/2513 P6SM -SHRA BKN040 RMK NXT FCST BY 250700Z

超过4000个机场的气象观测和天气预报(METAR&TAF报告)。

可查询的气象台以黄色和红色小点在地图上表示。

将鼠标移到小点上方,可查看气象台名称。

然后点击查看天气观测和预报。

如需切换地图:点击带黑十字的绿色按钮放大地图;点击带横线的绿色按钮缩小地图;或者点击绿色箭头查看邻近地区的地图。


METAR-TAF: